sensor_id;sensor_type;location;lat;lon;timestamp;P1;durP1;ratioP1;P2;durP2;ratioP2
2049;SDS011;8478;49.208;8.806;2023-09-08T00:01:55;8.07;;;7.57;;
2049;SDS011;8478;49.208;8.806;2023-09-08T00:04:20;8.87;;;8.27;;
2049;SDS011;8478;49.208;8.806;2023-09-08T00:06:46;7.53;;;7.07;;
2049;SDS011;8478;49.208;8.806;2023-09-08T00:09:12;7.22;;;6.72;;
2049;SDS011;8478;49.208;8.806;2023-09-08T00:11:38;8.40;;;7.70;;
2049;SDS011;8478;49.208;8.806;2023-09-08T00:14:04;7.60;;;6.90;;
2049;SDS011;8478;49.208;8.806;2023-09-08T00:16:30;8.17;;;7.60;;
2049;SDS011;8478;49.208;8.806;2023-09-08T00:18:56;8.87;;;8.17;;
2049;SDS011;8478;49.208;8.806;2023-09-08T00:21:23;8.40;;;7.90;;
2049;SDS011;8478;49.208;8.806;2023-09-08T00:23:52;7.80;;;7.30;;
2049;SDS011;8478;49.208;8.806;2023-09-08T00:26:19;8.27;;;7.67;;
2049;SDS011;8478;49.208;8.806;2023-09-08T00:28:45;7.80;;;7.30;;
2049;SDS011;8478;49.208;8.806;2023-09-08T00:31:10;8.83;;;8.13;;
2049;SDS011;8478;49.208;8.806;2023-09-08T00:33:36;7.60;;;7.10;;
2049;SDS011;8478;49.208;8.806;2023-09-08T00:36:02;7.20;;;6.70;;
2049;SDS011;8478;49.208;8.806;2023-09-08T00:38:28;7.27;;;6.77;;
2049;SDS011;8478;49.208;8.806;2023-09-08T00:40:53;8.03;;;7.50;;
2049;SDS011;8478;49.208;8.806;2023-09-08T00:43:19;7.60;;;7.20;;
2049;SDS011;8478;49.208;8.806;2023-09-08T00:45:45;8.33;;;7.80;;
2049;SDS011;8478;49.208;8.806;2023-09-08T00:48:11;7.83;;;7.33;;
2049;SDS011;8478;49.208;8.806;2023-09-08T00:50:38;7.00;;;6.50;;
2049;SDS011;8478;49.208;8.806;2023-09-08T00:53:07;7.97;;;7.37;;
2049;SDS011;8478;49.208;8.806;2023-09-08T00:55:33;8.33;;;7.73;;
2049;SDS011;8478;49.208;8.806;2023-09-08T00:57:59;8.73;;;8.23;;
2049;SDS011;8478;49.208;8.806;2023-09-08T01:00:26;8.00;;;7.33;;
2049;SDS011;8478;49.208;8.806;2023-09-08T01:02:52;7.27;;;6.87;;
2049;SDS011;8478;49.208;8.806;2023-09-08T01:05:19;9.03;;;8.33;;
2049;SDS011;8478;49.208;8.806;2023-09-08T01:07:46;7.13;;;6.63;;
2049;SDS011;8478;49.208;8.806;2023-09-08T01:10:13;8.30;;;7.70;;
2049;SDS011;8478;49.208;8.806;2023-09-08T01:12:39;8.33;;;7.63;;
2049;SDS011;8478;49.208;8.806;2023-09-08T01:15:05;8.27;;;7.57;;
2049;SDS011;8478;49.208;8.806;2023-09-08T01:17:31;8.13;;;7.63;;
2049;SDS011;8478;49.208;8.806;2023-09-08T01:19:58;8.17;;;7.67;;
2049;SDS011;8478;49.208;8.806;2023-09-08T01:25:17;7.93;;;7.33;;
2049;SDS011;8478;49.208;8.806;2023-09-08T01:27:47;8.07;;;7.60;;
2049;SDS011;8478;49.208;8.806;2023-09-08T01:30:15;8.90;;;8.30;;
2049;SDS011;8478;49.208;8.806;2023-09-08T01:32:41;8.50;;;8.00;;
2049;SDS011;8478;49.208;8.806;2023-09-08T01:35:09;8.40;;;7.80;;
2049;SDS011;8478;49.208;8.806;2023-09-08T01:37:35;7.80;;;7.40;;
2049;SDS011;8478;49.208;8.806;2023-09-08T01:40:04;8.87;;;8.27;;
2049;SDS011;8478;49.208;8.806;2023-09-08T01:42:30;8.43;;;7.60;;
2049;SDS011;8478;49.208;8.806;2023-09-08T01:44:56;8.43;;;7.83;;
2049;SDS011;8478;49.208;8.806;2023-09-08T01:47:21;8.63;;;8.10;;
2049;SDS011;8478;49.208;8.806;2023-09-08T01:49:47;8.27;;;7.67;;
2049;SDS011;8478;49.208;8.806;2023-09-08T01:52:12;8.50;;;8.00;;
2049;SDS011;8478;49.208;8.806;2023-09-08T01:54:38;8.37;;;7.73;;
2049;SDS011;8478;49.208;8.806;2023-09-08T01:57:04;8.20;;;7.70;;
2049;SDS011;8478;49.208;8.806;2023-09-08T01:59:29;7.77;;;7.27;;
2049;SDS011;8478;49.208;8.806;2023-09-08T02:01:55;8.63;;;8.03;;
2049;SDS011;8478;49.208;8.806;2023-09-08T02:04:21;8.17;;;7.67;;
2049;SDS011;8478;49.208;8.806;2023-09-08T02:06:46;7.63;;;7.20;;
2049;SDS011;8478;49.208;8.806;2023-09-08T02:09:13;7.90;;;7.37;;
2049;SDS011;8478;49.208;8.806;2023-09-08T02:11:39;8.30;;;7.80;;
2049;SDS011;8478;49.208;8.806;2023-09-08T02:14:07;8.40;;;7.90;;
2049;SDS011;8478;49.208;8.806;2023-09-08T02:16:32;8.40;;;7.80;;
2049;SDS011;8478;49.208;8.806;2023-09-08T02:18:58;8.60;;;7.83;;
2049;SDS011;8478;49.208;8.806;2023-09-08T02:21:23;7.83;;;7.23;;
2049;SDS011;8478;49.208;8.806;2023-09-08T02:23:49;9.20;;;8.50;;
2049;SDS011;8478;49.208;8.806;2023-09-08T02:26:15;8.53;;;7.93;;
2049;SDS011;8478;49.208;8.806;2023-09-08T02:28:41;9.00;;;8.23;;
2049;SDS011;8478;49.208;8.806;2023-09-08T02:31:06;8.70;;;8.00;;
2049;SDS011;8478;49.208;8.806;2023-09-08T02:33:32;8.77;;;8.07;;
2049;SDS011;8478;49.208;8.806;2023-09-08T02:36:01;8.20;;;7.50;;
2049;SDS011;8478;49.208;8.806;2023-09-08T02:38:28;7.53;;;6.93;;
2049;SDS011;8478;49.208;8.806;2023-09-08T02:40:54;8.90;;;8.30;;
2049;SDS011;8478;49.208;8.806;2023-09-08T02:43:20;9.47;;;8.87;;
2049;SDS011;8478;49.208;8.806;2023-09-08T02:45:46;9.13;;;8.53;;
2049;SDS011;8478;49.208;8.806;2023-09-08T02:48:12;8.00;;;7.43;;
2049;SDS011;8478;49.208;8.806;2023-09-08T02:50:38;9.50;;;8.80;;
2049;SDS011;8478;49.208;8.806;2023-09-08T02:53:03;7.43;;;6.83;;
2049;SDS011;8478;49.208;8.806;2023-09-08T02:55:30;9.27;;;8.67;;
2049;SDS011;8478;49.208;8.806;2023-09-08T02:57:56;8.90;;;8.37;;
2049;SDS011;8478;49.208;8.806;2023-09-08T03:00:21;8.60;;;7.90;;
2049;SDS011;8478;49.208;8.806;2023-09-08T03:02:47;8.60;;;8.00;;
2049;SDS011;8478;49.208;8.806;2023-09-08T03:05:13;10.40;;;9.60;;
2049;SDS011;8478;49.208;8.806;2023-09-08T03:07:38;9.17;;;8.47;;
2049;SDS011;8478;49.208;8.806;2023-09-08T03:10:04;8.17;;;7.67;;
2049;SDS011;8478;49.208;8.806;2023-09-08T03:12:31;8.13;;;7.53;;
2049;SDS011;8478;49.208;8.806;2023-09-08T03:14:56;8.03;;;7.53;;
2049;SDS011;8478;49.208;8.806;2023-09-08T03:17:22;8.10;;;7.60;;
2049;SDS011;8478;49.208;8.806;2023-09-08T03:19:48;8.53;;;7.93;;
2049;SDS011;8478;49.208;8.806;2023-09-08T03:22:13;8.40;;;7.70;;
2049;SDS011;8478;49.208;8.806;2023-09-08T03:24:39;7.90;;;7.40;;
2049;SDS011;8478;49.208;8.806;2023-09-08T03:27:05;8.90;;;8.20;;
2049;SDS011;8478;49.208;8.806;2023-09-08T03:29:30;8.77;;;8.20;;
2049;SDS011;8478;49.208;8.806;2023-09-08T03:31:56;9.37;;;8.67;;
2049;SDS011;8478;49.208;8.806;2023-09-08T03:34:22;9.37;;;8.73;;
2049;SDS011;8478;49.208;8.806;2023-09-08T03:36:48;8.97;;;8.27;;
2049;SDS011;8478;49.208;8.806;2023-09-08T03:39:15;8.80;;;8.30;;
2049;SDS011;8478;49.208;8.806;2023-09-08T03:41:40;8.60;;;8.10;;
2049;SDS011;8478;49.208;8.806;2023-09-08T03:44:06;9.33;;;8.73;;
2049;SDS011;8478;49.208;8.806;2023-09-08T03:46:32;9.33;;;8.63;;
2049;SDS011;8478;49.208;8.806;2023-09-08T03:48:57;9.73;;;9.07;;
2049;SDS011;8478;49.208;8.806;2023-09-08T03:51:26;9.33;;;8.73;;
2049;SDS011;8478;49.208;8.806;2023-09-08T03:53:52;9.03;;;8.40;;
2049;SDS011;8478;49.208;8.806;2023-09-08T03:56:18;8.90;;;8.20;;
2049;SDS011;8478;49.208;8.806;2023-09-08T03:58:45;8.50;;;8.00;;
2049;SDS011;8478;49.208;8.806;2023-09-08T04:01:11;9.37;;;8.67;;
2049;SDS011;8478;49.208;8.806;2023-09-08T04:03:37;9.27;;;8.57;;
2049;SDS011;8478;49.208;8.806;2023-09-08T04:06:02;9.83;;;9.23;;
2049;SDS011;8478;49.208;8.806;2023-09-08T04:08:28;9.87;;;9.10;;
2049;SDS011;8478;49.208;8.806;2023-09-08T04:10:54;9.40;;;8.80;;
2049;SDS011;8478;49.208;8.806;2023-09-08T04:13:19;9.07;;;8.47;;
2049;SDS011;8478;49.208;8.806;2023-09-08T04:15:45;8.20;;;7.60;;
2049;SDS011;8478;49.208;8.806;2023-09-08T04:18:11;9.60;;;8.90;;
2049;SDS011;8478;49.208;8.806;2023-09-08T04:20:36;9.67;;;8.97;;
2049;SDS011;8478;49.208;8.806;2023-09-08T04:23:02;9.60;;;8.83;;
2049;SDS011;8478;49.208;8.806;2023-09-08T04:25:28;9.73;;;9.13;;
2049;SDS011;8478;49.208;8.806;2023-09-08T04:27:53;8.93;;;8.30;;
2049;SDS011;8478;49.208;8.806;2023-09-08T04:30:19;9.60;;;8.80;;
2049;SDS011;8478;49.208;8.806;2023-09-08T04:32:45;9.90;;;9.30;;
2049;SDS011;8478;49.208;8.806;2023-09-08T04:35:10;9.47;;;8.97;;
2049;SDS011;8478;49.208;8.806;2023-09-08T04:37:36;9.27;;;8.67;;
2049;SDS011;8478;49.208;8.806;2023-09-08T04:40:03;10.37;;;9.67;;
2049;SDS011;8478;49.208;8.806;2023-09-08T04:42:30;10.20;;;9.40;;
2049;SDS011;8478;49.208;8.806;2023-09-08T04:44:56;9.63;;;8.90;;
2049;SDS011;8478;49.208;8.806;2023-09-08T04:47:21;9.63;;;9.03;;
2049;SDS011;8478;49.208;8.806;2023-09-08T04:49:47;9.90;;;9.30;;
2049;SDS011;8478;49.208;8.806;2023-09-08T04:52:13;10.20;;;9.40;;
2049;SDS011;8478;49.208;8.806;2023-09-08T04:54:39;9.30;;;8.70;;
2049;SDS011;8478;49.208;8.806;2023-09-08T04:57:05;10.33;;;9.43;;
2049;SDS011;8478;49.208;8.806;2023-09-08T04:59:31;10.23;;;9.63;;
2049;SDS011;8478;49.208;8.806;2023-09-08T05:01:57;10.70;;;10.10;;
2049;SDS011;8478;49.208;8.806;2023-09-08T05:04:24;10.27;;;9.57;;
2049;SDS011;8478;49.208;8.806;2023-09-08T05:06:49;9.70;;;9.00;;
2049;SDS011;8478;49.208;8.806;2023-09-08T05:09:15;9.00;;;8.40;;
2049;SDS011;8478;49.208;8.806;2023-09-08T05:11:41;9.10;;;8.57;;
2049;SDS011;8478;49.208;8.806;2023-09-08T05:14:06;9.37;;;8.70;;
2049;SDS011;8478;49.208;8.806;2023-09-08T05:16:32;10.23;;;9.33;;
2049;SDS011;8478;49.208;8.806;2023-09-08T05:19:20;9.27;;;8.53;;
2049;SDS011;8478;49.208;8.806;2023-09-08T05:21:46;9.73;;;9.03;;
2049;SDS011;8478;49.208;8.806;2023-09-08T05:24:12;9.73;;;9.13;;
2049;SDS011;8478;49.208;8.806;2023-09-08T05:26:37;9.70;;;9.00;;
2049;SDS011;8478;49.208;8.806;2023-09-08T05:29:07;10.73;;;10.03;;
2049;SDS011;8478;49.208;8.806;2023-09-08T05:31:32;10.00;;;9.20;;
2049;SDS011;8478;49.208;8.806;2023-09-08T05:33:58;9.90;;;9.20;;
2049;SDS011;8478;49.208;8.806;2023-09-08T05:36:24;10.43;;;9.83;;
2049;SDS011;8478;49.208;8.806;2023-09-08T05:38:49;10.13;;;9.53;;
2049;SDS011;8478;49.208;8.806;2023-09-08T05:41:15;10.53;;;9.77;;
2049;SDS011;8478;49.208;8.806;2023-09-08T05:43:40;10.70;;;9.90;;
2049;SDS011;8478;49.208;8.806;2023-09-08T05:46:06;10.60;;;9.90;;
2049;SDS011;8478;49.208;8.806;2023-09-08T05:48:32;9.83;;;9.17;;
2049;SDS011;8478;49.208;8.806;2023-09-08T05:50:57;9.97;;;9.37;;
2049;SDS011;8478;49.208;8.806;2023-09-08T05:53:23;9.77;;;9.17;;
2049;SDS011;8478;49.208;8.806;2023-09-08T05:55:49;9.37;;;8.67;;
2049;SDS011;8478;49.208;8.806;2023-09-08T05:58:15;10.30;;;9.50;;
2049;SDS011;8478;49.208;8.806;2023-09-08T06:00:40;11.03;;;10.37;;
2049;SDS011;8478;49.208;8.806;2023-09-08T06:03:06;10.80;;;10.00;;
2049;SDS011;8478;49.208;8.806;2023-09-08T06:05:32;10.43;;;9.73;;
2049;SDS011;8478;49.208;8.806;2023-09-08T06:07:58;10.10;;;9.50;;
2049;SDS011;8478;49.208;8.806;2023-09-08T06:10:23;9.73;;;9.13;;
2049;SDS011;8478;49.208;8.806;2023-09-08T06:12:49;10.60;;;9.80;;
2049;SDS011;8478;49.208;8.806;2023-09-08T06:15:16;10.83;;;10.10;;
2049;SDS011;8478;49.208;8.806;2023-09-08T06:17:42;9.97;;;9.37;;
2049;SDS011;8478;49.208;8.806;2023-09-08T06:20:08;10.43;;;9.73;;
2049;SDS011;8478;49.208;8.806;2023-09-08T06:22:34;10.87;;;10.13;;
2049;SDS011;8478;49.208;8.806;2023-09-08T06:24:59;10.30;;;9.70;;
2049;SDS011;8478;49.208;8.806;2023-09-08T06:27:25;10.13;;;9.53;;
2049;SDS011;8478;49.208;8.806;2023-09-08T06:29:51;10.00;;;9.40;;
2049;SDS011;8478;49.208;8.806;2023-09-08T06:32:16;10.63;;;10.03;;
2049;SDS011;8478;49.208;8.806;2023-09-08T06:34:42;10.70;;;10.10;;
2049;SDS011;8478;49.208;8.806;2023-09-08T06:37:08;10.43;;;9.83;;
2049;SDS011;8478;49.208;8.806;2023-09-08T06:39:34;9.50;;;8.90;;
2049;SDS011;8478;49.208;8.806;2023-09-08T06:41:59;10.27;;;9.67;;
2049;SDS011;8478;49.208;8.806;2023-09-08T06:44:25;10.10;;;9.40;;
2049;SDS011;8478;49.208;8.806;2023-09-08T06:46:51;10.77;;;10.07;;
2049;SDS011;8478;49.208;8.806;2023-09-08T06:49:16;9.57;;;8.97;;
2049;SDS011;8478;49.208;8.806;2023-09-08T06:51:42;9.73;;;9.13;;
2049;SDS011;8478;49.208;8.806;2023-09-08T06:54:08;9.80;;;9.20;;
2049;SDS011;8478;49.208;8.806;2023-09-08T06:56:35;10.30;;;9.70;;
2049;SDS011;8478;49.208;8.806;2023-09-08T06:59:02;9.27;;;8.77;;
2049;SDS011;8478;49.208;8.806;2023-09-08T07:01:28;10.03;;;9.43;;
2049;SDS011;8478;49.208;8.806;2023-09-08T07:03:53;9.83;;;9.23;;
2049;SDS011;8478;49.208;8.806;2023-09-08T07:06:19;9.53;;;9.03;;
2049;SDS011;8478;49.208;8.806;2023-09-08T07:08:47;10.33;;;9.73;;
2049;SDS011;8478;49.208;8.806;2023-09-08T07:11:15;10.70;;;10.00;;
2049;SDS011;8478;49.208;8.806;2023-09-08T07:13:41;9.40;;;8.80;;
2049;SDS011;8478;49.208;8.806;2023-09-08T07:16:06;9.07;;;8.47;;
2049;SDS011;8478;49.208;8.806;2023-09-08T07:18:32;9.23;;;8.73;;
2049;SDS011;8478;49.208;8.806;2023-09-08T07:21:01;10.37;;;9.77;;
2049;SDS011;8478;49.208;8.806;2023-09-08T07:23:27;9.63;;;8.93;;
2049;SDS011;8478;49.208;8.806;2023-09-08T07:25:53;9.13;;;8.53;;
2049;SDS011;8478;49.208;8.806;2023-09-08T07:28:19;9.67;;;9.00;;
2049;SDS011;8478;49.208;8.806;2023-09-08T07:30:44;10.60;;;9.93;;
2049;SDS011;8478;49.208;8.806;2023-09-08T07:33:10;9.53;;;8.80;;
2049;SDS011;8478;49.208;8.806;2023-09-08T07:35:37;9.47;;;8.90;;
2049;SDS011;8478;49.208;8.806;2023-09-08T07:38:03;10.10;;;9.20;;
2049;SDS011;8478;49.208;8.806;2023-09-08T07:40:29;9.23;;;8.63;;
2049;SDS011;8478;49.208;8.806;2023-09-08T07:42:55;8.87;;;8.27;;
2049;SDS011;8478;49.208;8.806;2023-09-08T07:45:20;9.50;;;8.90;;
2049;SDS011;8478;49.208;8.806;2023-09-08T07:47:46;9.20;;;8.60;;
2049;SDS011;8478;49.208;8.806;2023-09-08T07:50:15;9.10;;;8.60;;
2049;SDS011;8478;49.208;8.806;2023-09-08T07:52:47;9.67;;;9.07;;
2049;SDS011;8478;49.208;8.806;2023-09-08T07:55:13;9.03;;;8.53;;
2049;SDS011;8478;49.208;8.806;2023-09-08T07:57:40;9.20;;;8.70;;
2049;SDS011;8478;49.208;8.806;2023-09-08T08:00:11;9.37;;;8.77;;
2049;SDS011;8478;49.208;8.806;2023-09-08T08:02:48;9.93;;;9.33;;
2049;SDS011;8478;49.208;8.806;2023-09-08T08:05:15;10.40;;;9.80;;
2049;SDS011;8478;49.208;8.806;2023-09-08T08:07:41;10.73;;;10.03;;
2049;SDS011;8478;49.208;8.806;2023-09-08T08:10:09;9.50;;;8.80;;
2049;SDS011;8478;49.208;8.806;2023-09-08T08:12:36;9.63;;;9.03;;
2049;SDS011;8478;49.208;8.806;2023-09-08T08:15:02;9.57;;;8.97;;
2049;SDS011;8478;49.208;8.806;2023-09-08T08:17:29;8.90;;;8.40;;
2049;SDS011;8478;49.208;8.806;2023-09-08T08:19:56;9.40;;;8.80;;
2049;SDS011;8478;49.208;8.806;2023-09-08T08:22:23;9.77;;;9.17;;
2049;SDS011;8478;49.208;8.806;2023-09-08T08:24:52;9.60;;;9.00;;
2049;SDS011;8478;49.208;8.806;2023-09-08T08:27:18;10.37;;;9.77;;
2049;SDS011;8478;49.208;8.806;2023-09-08T08:29:43;9.53;;;8.93;;
2049;SDS011;8478;49.208;8.806;2023-09-08T08:32:09;9.77;;;9.17;;
2049;SDS011;8478;49.208;8.806;2023-09-08T08:34:36;9.63;;;9.13;;
2049;SDS011;8478;49.208;8.806;2023-09-08T08:37:01;9.17;;;8.57;;
2049;SDS011;8478;49.208;8.806;2023-09-08T08:39:28;9.60;;;9.00;;
2049;SDS011;8478;49.208;8.806;2023-09-08T08:41:53;10.50;;;9.50;;
2049;SDS011;8478;49.208;8.806;2023-09-08T08:44:19;9.67;;;9.07;;
2049;SDS011;8478;49.208;8.806;2023-09-08T08:46:46;10.23;;;9.57;;
2049;SDS011;8478;49.208;8.806;2023-09-08T08:49:14;9.97;;;9.37;;
2049;SDS011;8478;49.208;8.806;2023-09-08T08:51:42;9.60;;;9.00;;
2049;SDS011;8478;49.208;8.806;2023-09-08T08:54:12;10.33;;;9.63;;
2049;SDS011;8478;49.208;8.806;2023-09-08T08:56:38;10.33;;;9.63;;
2049;SDS011;8478;49.208;8.806;2023-09-08T08:59:05;11.13;;;10.23;;
2049;SDS011;8478;49.208;8.806;2023-09-08T09:01:31;9.93;;;9.33;;
2049;SDS011;8478;49.208;8.806;2023-09-08T09:03:57;10.20;;;9.60;;
2049;SDS011;8478;49.208;8.806;2023-09-08T09:06:23;10.47;;;9.77;;
2049;SDS011;8478;49.208;8.806;2023-09-08T09:08:49;10.80;;;10.10;;
2049;SDS011;8478;49.208;8.806;2023-09-08T09:11:14;9.40;;;8.90;;
2049;SDS011;8478;49.208;8.806;2023-09-08T09:13:41;10.73;;;9.93;;
2049;SDS011;8478;49.208;8.806;2023-09-08T09:16:06;10.33;;;9.67;;
2049;SDS011;8478;49.208;8.806;2023-09-08T09:19:21;11.10;;;10.17;;
2049;SDS011;8478;49.208;8.806;2023-09-08T09:21:22;10.17;;;9.47;;
2049;SDS011;8478;49.208;8.806;2023-09-08T09:23:49;10.43;;;9.83;;
2049;SDS011;8478;49.208;8.806;2023-09-08T09:26:25;11.57;;;10.87;;
2049;SDS011;8478;49.208;8.806;2023-09-08T09:28:51;9.87;;;9.17;;
2049;SDS011;8478;49.208;8.806;2023-09-08T09:31:21;10.60;;;9.90;;
2049;SDS011;8478;49.208;8.806;2023-09-08T09:34:00;10.80;;;10.20;;
2049;SDS011;8478;49.208;8.806;2023-09-08T09:36:29;11.00;;;10.13;;
2049;SDS011;8478;49.208;8.806;2023-09-08T09:38:58;10.90;;;10.27;;
2049;SDS011;8478;49.208;8.806;2023-09-08T09:41:25;11.40;;;10.70;;
2049;SDS011;8478;49.208;8.806;2023-09-08T09:43:57;10.20;;;9.50;;
2049;SDS011;8478;49.208;8.806;2023-09-08T09:46:23;10.20;;;9.50;;
2049;SDS011;8478;49.208;8.806;2023-09-08T09:48:55;9.53;;;8.80;;
2049;SDS011;8478;49.208;8.806;2023-09-08T09:51:23;10.60;;;9.90;;
2049;SDS011;8478;49.208;8.806;2023-09-08T09:53:49;9.83;;;9.13;;
2049;SDS011;8478;49.208;8.806;2023-09-08T09:56:16;11.60;;;10.80;;
2049;SDS011;8478;49.208;8.806;2023-09-08T09:58:42;10.17;;;9.57;;
2049;SDS011;8478;49.208;8.806;2023-09-08T10:01:09;10.83;;;10.13;;
2049;SDS011;8478;49.208;8.806;2023-09-08T10:03:38;10.63;;;9.77;;
2049;SDS011;8478;49.208;8.806;2023-09-08T10:06:04;10.60;;;9.83;;
2049;SDS011;8478;49.208;8.806;2023-09-08T10:08:30;9.90;;;9.10;;
2049;SDS011;8478;49.208;8.806;2023-09-08T10:10:59;11.33;;;10.43;;
2049;SDS011;8478;49.208;8.806;2023-09-08T10:13:31;10.90;;;10.10;;
2049;SDS011;8478;49.208;8.806;2023-09-08T10:16:05;11.13;;;10.40;;
2049;SDS011;8478;49.208;8.806;2023-09-08T10:18:33;9.63;;;8.93;;
2049;SDS011;8478;49.208;8.806;2023-09-08T10:21:00;10.83;;;10.13;;
2049;SDS011;8478;49.208;8.806;2023-09-08T10:23:34;11.50;;;10.80;;
2049;SDS011;8478;49.208;8.806;2023-09-08T10:26:11;10.83;;;10.10;;
2049;SDS011;8478;49.208;8.806;2023-09-08T10:28:41;10.47;;;9.77;;
2049;SDS011;8478;49.208;8.806;2023-09-08T10:31:07;9.60;;;9.00;;
2049;SDS011;8478;49.208;8.806;2023-09-08T10:33:34;10.83;;;10.13;;
2049;SDS011;8478;49.208;8.806;2023-09-08T10:36:00;10.07;;;9.47;;
2049;SDS011;8478;49.208;8.806;2023-09-08T10:38:31;10.73;;;9.97;;
2049;SDS011;8478;49.208;8.806;2023-09-08T10:41:44;10.47;;;9.77;;
2049;SDS011;8478;49.208;8.806;2023-09-08T10:43:57;11.07;;;10.33;;
2049;SDS011;8478;49.208;8.806;2023-09-08T10:46:27;10.57;;;9.97;;
2049;SDS011;8478;49.208;8.806;2023-09-08T10:48:54;11.93;;;11.13;;
2049;SDS011;8478;49.208;8.806;2023-09-08T10:51:21;11.27;;;10.40;;
2049;SDS011;8478;49.208;8.806;2023-09-08T10:53:49;10.57;;;9.77;;
2049;SDS011;8478;49.208;8.806;2023-09-08T10:56:16;9.97;;;9.43;;
2049;SDS011;8478;49.208;8.806;2023-09-08T10:58:42;10.50;;;9.80;;
2049;SDS011;8478;49.208;8.806;2023-09-08T11:01:18;9.10;;;8.60;;
2049;SDS011;8478;49.208;8.806;2023-09-08T11:03:47;9.10;;;8.50;;
2049;SDS011;8478;49.208;8.806;2023-09-08T11:06:18;9.70;;;9.10;;
2049;SDS011;8478;49.208;8.806;2023-09-08T11:08:46;9.53;;;8.93;;
2049;SDS011;8478;49.208;8.806;2023-09-08T11:11:14;10.83;;;10.13;;
2049;SDS011;8478;49.208;8.806;2023-09-08T11:13:41;10.03;;;9.43;;
2049;SDS011;8478;49.208;8.806;2023-09-08T11:16:07;10.07;;;9.37;;
2049;SDS011;8478;49.208;8.806;2023-09-08T11:18:33;9.63;;;8.80;;
2049;SDS011;8478;49.208;8.806;2023-09-08T11:21:01;10.17;;;9.57;;
2049;SDS011;8478;49.208;8.806;2023-09-08T11:23:27;11.00;;;10.10;;
2049;SDS011;8478;49.208;8.806;2023-09-08T11:25:54;10.60;;;10.00;;
2049;SDS011;8478;49.208;8.806;2023-09-08T11:28:23;11.43;;;10.73;;
2049;SDS011;8478;49.208;8.806;2023-09-08T11:30:49;11.00;;;10.30;;
2049;SDS011;8478;49.208;8.806;2023-09-08T11:33:19;10.67;;;9.90;;
2049;SDS011;8478;49.208;8.806;2023-09-08T11:35:49;10.10;;;9.40;;
2049;SDS011;8478;49.208;8.806;2023-09-08T11:38:17;11.13;;;10.43;;
2049;SDS011;8478;49.208;8.806;2023-09-08T11:40:43;9.77;;;9.17;;
2049;SDS011;8478;49.208;8.806;2023-09-08T11:43:09;9.30;;;8.70;;
2049;SDS011;8478;49.208;8.806;2023-09-08T11:45:35;9.10;;;8.57;;
2049;SDS011;8478;49.208;8.806;2023-09-08T11:48:01;10.57;;;9.87;;
2049;SDS011;8478;49.208;8.806;2023-09-08T11:50:29;9.43;;;8.83;;
2049;SDS011;8478;49.208;8.806;2023-09-08T11:52:55;9.77;;;9.13;;
2049;SDS011;8478;49.208;8.806;2023-09-08T11:55:24;10.20;;;9.60;;
2049;SDS011;8478;49.208;8.806;2023-09-08T11:57:53;10.17;;;9.57;;
2049;SDS011;8478;49.208;8.806;2023-09-08T12:00:22;10.47;;;9.77;;
2049;SDS011;8478;49.208;8.806;2023-09-08T12:02:50;11.10;;;10.23;;
2049;SDS011;8478;49.208;8.806;2023-09-08T12:05:23;10.57;;;9.77;;
2049;SDS011;8478;49.208;8.806;2023-09-08T12:07:50;11.00;;;10.20;;
2049;SDS011;8478;49.208;8.806;2023-09-08T12:10:17;11.30;;;10.60;;
2049;SDS011;8478;49.208;8.806;2023-09-08T12:12:44;9.87;;;9.27;;
2049;SDS011;8478;49.208;8.806;2023-09-08T12:15:11;9.50;;;8.90;;
2049;SDS011;8478;49.208;8.806;2023-09-08T12:17:54;9.20;;;8.37;;
2049;SDS011;8478;49.208;8.806;2023-09-08T12:20:19;10.40;;;9.80;;
2049;SDS011;8478;49.208;8.806;2023-09-08T12:22:49;9.90;;;9.40;;
2049;SDS011;8478;49.208;8.806;2023-09-08T12:25:16;10.27;;;9.63;;
2049;SDS011;8478;49.208;8.806;2023-09-08T12:27:42;11.70;;;10.80;;
2049;SDS011;8478;49.208;8.806;2023-09-08T12:30:15;10.33;;;9.73;;
2049;SDS011;8478;49.208;8.806;2023-09-08T12:32:44;11.23;;;10.53;;
2049;SDS011;8478;49.208;8.806;2023-09-08T12:35:12;10.63;;;9.90;;
2049;SDS011;8478;49.208;8.806;2023-09-08T12:37:38;10.40;;;9.50;;
2049;SDS011;8478;49.208;8.806;2023-09-08T12:40:04;10.40;;;9.80;;
2049;SDS011;8478;49.208;8.806;2023-09-08T12:42:30;10.00;;;9.40;;
2049;SDS011;8478;49.208;8.806;2023-09-08T12:44:56;10.80;;;9.97;;
2049;SDS011;8478;49.208;8.806;2023-09-08T12:47:22;10.57;;;9.90;;
2049;SDS011;8478;49.208;8.806;2023-09-08T12:49:48;9.60;;;9.10;;
2049;SDS011;8478;49.208;8.806;2023-09-08T12:52:14;10.30;;;9.60;;
2049;SDS011;8478;49.208;8.806;2023-09-08T12:54:39;10.80;;;10.03;;
2049;SDS011;8478;49.208;8.806;2023-09-08T12:57:05;10.87;;;10.17;;
2049;SDS011;8478;49.208;8.806;2023-09-08T12:59:31;9.53;;;9.00;;
2049;SDS011;8478;49.208;8.806;2023-09-08T13:01:56;9.40;;;8.80;;
2049;SDS011;8478;49.208;8.806;2023-09-08T13:04:23;10.33;;;9.63;;
2049;SDS011;8478;49.208;8.806;2023-09-08T13:06:49;11.20;;;10.40;;
2049;SDS011;8478;49.208;8.806;2023-09-08T13:09:15;10.57;;;9.97;;
2049;SDS011;8478;49.208;8.806;2023-09-08T13:11:41;10.67;;;10.00;;
2049;SDS011;8478;49.208;8.806;2023-09-08T13:14:08;10.80;;;10.10;;
2049;SDS011;8478;49.208;8.806;2023-09-08T13:16:33;11.00;;;10.30;;
2049;SDS011;8478;49.208;8.806;2023-09-08T13:18:59;10.73;;;10.03;;
2049;SDS011;8478;49.208;8.806;2023-09-08T13:21:25;10.30;;;9.70;;
2049;SDS011;8478;49.208;8.806;2023-09-08T13:23:50;10.47;;;9.87;;
2049;SDS011;8478;49.208;8.806;2023-09-08T13:26:16;8.17;;;7.77;;
2049;SDS011;8478;49.208;8.806;2023-09-08T13:28:42;9.37;;;8.77;;
2049;SDS011;8478;49.208;8.806;2023-09-08T13:31:08;10.37;;;9.70;;
2049;SDS011;8478;49.208;8.806;2023-09-08T13:33:34;10.30;;;9.70;;
2049;SDS011;8478;49.208;8.806;2023-09-08T13:35:59;10.00;;;9.40;;
2049;SDS011;8478;49.208;8.806;2023-09-08T13:38:25;10.70;;;10.00;;
2049;SDS011;8478;49.208;8.806;2023-09-08T13:40:51;10.13;;;9.53;;
2049;SDS011;8478;49.208;8.806;2023-09-08T13:43:18;10.83;;;10.13;;
2049;SDS011;8478;49.208;8.806;2023-09-08T13:45:43;10.07;;;9.43;;
2049;SDS011;8478;49.208;8.806;2023-09-08T13:48:09;10.77;;;10.07;;
2049;SDS011;8478;49.208;8.806;2023-09-08T13:50:37;9.67;;;9.07;;
2049;SDS011;8478;49.208;8.806;2023-09-08T13:53:04;9.83;;;9.33;;
2049;SDS011;8478;49.208;8.806;2023-09-08T13:55:30;10.30;;;9.70;;
2049;SDS011;8478;49.208;8.806;2023-09-08T13:57:55;10.33;;;9.73;;
2049;SDS011;8478;49.208;8.806;2023-09-08T14:00:21;10.03;;;9.33;;
2049;SDS011;8478;49.208;8.806;2023-09-08T14:02:47;11.40;;;10.70;;
2049;SDS011;8478;49.208;8.806;2023-09-08T14:05:12;9.90;;;9.30;;
2049;SDS011;8478;49.208;8.806;2023-09-08T14:07:38;9.93;;;9.27;;
2049;SDS011;8478;49.208;8.806;2023-09-08T14:10:04;10.27;;;9.67;;
2049;SDS011;8478;49.208;8.806;2023-09-08T14:12:32;10.37;;;9.77;;
2049;SDS011;8478;49.208;8.806;2023-09-08T14:14:58;10.97;;;10.17;;
2049;SDS011;8478;49.208;8.806;2023-09-08T14:17:24;8.67;;;8.13;;
2049;SDS011;8478;49.208;8.806;2023-09-08T14:19:50;10.30;;;9.60;;
2049;SDS011;8478;49.208;8.806;2023-09-08T14:22:15;10.30;;;9.60;;
2049;SDS011;8478;49.208;8.806;2023-09-08T14:24:41;10.63;;;9.90;;
2049;SDS011;8478;49.208;8.806;2023-09-08T14:27:07;9.77;;;9.17;;
2049;SDS011;8478;49.208;8.806;2023-09-08T14:29:33;9.50;;;9.00;;
2049;SDS011;8478;49.208;8.806;2023-09-08T14:31:59;9.37;;;8.77;;
2049;SDS011;8478;49.208;8.806;2023-09-08T14:34:24;9.07;;;8.57;;
2049;SDS011;8478;49.208;8.806;2023-09-08T14:36:50;10.13;;;9.47;;
2049;SDS011;8478;49.208;8.806;2023-09-08T14:39:16;9.20;;;8.60;;
2049;SDS011;8478;49.208;8.806;2023-09-08T14:41:44;8.97;;;8.50;;
2049;SDS011;8478;49.208;8.806;2023-09-08T14:44:10;9.00;;;8.40;;
2049;SDS011;8478;49.208;8.806;2023-09-08T14:46:36;9.17;;;8.57;;
2049;SDS011;8478;49.208;8.806;2023-09-08T14:49:01;9.10;;;8.50;;
2049;SDS011;8478;49.208;8.806;2023-09-08T14:51:27;7.90;;;7.40;;
2049;SDS011;8478;49.208;8.806;2023-09-08T14:53:54;9.77;;;9.17;;
2049;SDS011;8478;49.208;8.806;2023-09-08T14:56:19;10.37;;;9.67;;
2049;SDS011;8478;49.208;8.806;2023-09-08T14:58:45;8.70;;;8.20;;
2049;SDS011;8478;49.208;8.806;2023-09-08T15:01:11;10.10;;;9.40;;
2049;SDS011;8478;49.208;8.806;2023-09-08T15:03:39;9.47;;;8.83;;
2049;SDS011;8478;49.208;8.806;2023-09-08T15:06:05;9.07;;;8.57;;
2049;SDS011;8478;49.208;8.806;2023-09-08T15:08:31;8.80;;;8.30;;